Time;durP1;ratioP1;P1;durP2;ratioP2;P2;SDS_P1;SDS_P2;PMS_P1;PMS_P2;Temp;Humidity;BMP_temperature;BMP_pressure;BME280_temperature;BME280_humidity;BME280_pressure;Samples;Min_cycle;Max_cycle;Signal;HPM_P1;HPM_P2
2022/04/20 00:01:16;;;;;;;33.80;6.60;;;7.80;21.00;;;;;;5007473;28;20480;-58
2022/04/20 00:03:42;;;;;;;34.77;6.67;;;7.80;21.10;;;;;;5008961;28;20464;-57
2022/04/20 00:06:10;;;;;;;34.40;7.60;;;7.80;20.70;;;;;;5008271;28;20464;-60
2022/04/20 00:08:37;;;;;;;34.67;6.80;;;7.80;20.80;;;;;;5005041;28;20484;-58
2022/04/20 00:11:04;;;;;;;34.43;7.50;;;7.80;20.70;;;;;;5007957;28;20478;-58
2022/04/20 00:13:31;;;;;;;33.33;7.77;;;7.80;20.90;;;;;;5008266;28;20475;-58
2022/04/20 00:15:59;;;;;;;34.50;8.20;;;7.80;20.90;;;;;;5007625;28;20499;-59
2022/04/20 00:18:25;;;;;;;34.20;7.13;;;7.80;20.90;;;;;;5006594;28;20479;-58
2022/04/20 00:20:52;;;;;;;34.60;8.30;;;7.80;20.60;;;;;;5010852;28;20475;-59
2022/04/20 00:23:20;;;;;;;33.13;6.53;;;7.80;20.70;;;;;;5007506;28;20839;-58
2022/04/20 00:25:47;;;;;;;32.80;7.13;;;7.70;20.60;;;;;;5010794;28;20470;-59
2022/04/20 00:28:14;;;;;;;33.30;8.40;;;7.70;20.90;;;;;;5007758;28;20480;-58
2022/04/20 00:30:40;;;;;;;37.67;7.33;;;7.70;20.80;;;;;;5007699;28;20467;-60
2022/04/20 00:33:07;;;;;;;35.63;7.67;;;7.70;20.70;;;;;;5007108;28;20989;-58
2022/04/20 00:35:34;;;;;;;32.83;7.03;;;7.70;21.50;;;;;;5009141;28;20478;-58
2022/04/20 00:38:01;;;;;;;34.53;7.67;;;7.60;20.90;;;;;;5013435;28;20483;-58
2022/04/20 00:40:29;;;;;;;33.43;8.30;;;7.60;21.00;;;;;;5007023;28;20465;-59
2022/04/20 00:42:56;;;;;;;33.93;8.30;;;7.60;21.20;;;;;;5008940;28;20477;-59
2022/04/20 00:45:24;;;;;;;34.30;8.20;;;7.60;21.30;;;;;;5005735;28;20475;-58
2022/04/20 00:47:54;;;;;;;33.70;8.67;;;7.60;21.40;;;;;;5010560;28;20479;-58
2022/04/20 00:50:22;;;;;;;33.93;8.30;;;7.60;21.60;;;;;;5013596;28;20476;-59
2022/04/20 00:52:49;;;;;;;34.17;8.27;;;7.50;21.60;;;;;;5008489;28;20464;-59
2022/04/20 00:55:15;;;;;;;35.20;10.10;;;7.40;21.80;;;;;;5010135;28;20468;-57
2022/04/20 00:57:43;;;;;;;36.70;8.70;;;7.40;22.00;;;;;;5006095;28;20488;-57
2022/04/20 01:00:11;;;;;;;34.47;9.00;;;7.40;22.20;;;;;;5012035;28;20992;-58
2022/04/20 01:02:38;;;;;;;34.80;9.37;;;7.30;22.40;;;;;;5012390;28;20817;-58
2022/04/20 01:05:06;;;;;;;35.70;8.57;;;7.30;22.40;;;;;;5004342;28;20482;-57
2022/04/20 01:07:36;;;;;;;35.50;9.33;;;7.30;23.00;;;;;;5007035;28;20482;-58
2022/04/20 01:10:03;;;;;;;35.83;9.30;;;7.20;23.10;;;;;;5004475;28;20503;-59
2022/04/20 01:12:30;;;;;;;36.53;10.13;;;7.10;23.20;;;;;;5014197;28;20621;-57
2022/04/20 01:14:58;;;;;;;34.50;9.27;;;7.10;23.50;;;;;;5005859;28;20498;-58
2022/04/20 01:17:25;;;;;;;33.17;8.93;;;7.10;23.70;;;;;;5012886;28;20578;-57
2022/04/20 01:19:52;;;;;;;33.23;9.10;;;7.10;23.80;;;;;;5008906;28;20472;-59
2022/04/20 01:22:21;;;;;;;33.77;8.83;;;7.00;24.20;;;;;;5009181;28;20969;-58
2022/04/20 01:24:48;;;;;;;35.03;9.57;;;7.00;23.80;;;;;;5008686;28;20454;-56
2022/04/20 01:27:15;;;;;;;33.67;8.97;;;7.00;23.80;;;;;;5010524;28;21294;-56
2022/04/20 01:29:43;;;;;;;34.33;8.30;;;6.90;23.70;;;;;;5004898;28;20460;-58
2022/04/20 01:32:10;;;;;;;34.00;8.83;;;6.90;23.60;;;;;;5005077;28;20475;-57
2022/04/20 01:34:36;;;;;;;33.50;9.27;;;6.90;23.70;;;;;;5009480;28;21003;-57
2022/04/20 01:37:03;;;;;;;37.03;10.23;;;6.90;24.00;;;;;;5008606;28;20502;-58
2022/04/20 01:39:32;;;;;;;35.57;9.20;;;6.80;24.10;;;;;;5007015;28;20969;-58
2022/04/20 01:41:58;;;;;;;33.47;9.50;;;6.80;24.00;;;;;;5006258;28;20954;-58
2022/04/20 01:44:25;;;;;;;34.80;9.93;;;6.70;24.20;;;;;;5006138;28;20485;-58
2022/04/20 01:46:52;;;;;;;34.30;9.60;;;6.70;24.20;;;;;;5011719;28;20478;-57
2022/04/20 01:49:18;;;;;;;34.40;10.40;;;6.70;24.60;;;;;;5005669;28;20841;-56
2022/04/20 01:51:50;;;;;;;39.73;10.00;;;6.60;24.70;;;;;;5006482;28;20468;-56
2022/04/20 01:54:17;;;;;;;34.73;10.40;;;6.60;24.80;;;;;;5005672;28;20496;-57
2022/04/20 01:56:46;;;;;;;33.20;11.53;;;6.50;25.20;;;;;;5011965;28;20480;-57
2022/04/20 01:59:13;;;;;;;33.60;10.40;;;6.50;25.40;;;;;;5002326;28;20494;-56
2022/04/20 02:04:24;;;;;;;33.53;10.37;;;6.50;25.70;;;;;;5008868;28;20454;-56
2022/04/20 02:06:51;;;;;;;34.93;11.10;;;6.40;25.70;;;;;;5010258;28;20490;-57
2022/04/20 02:09:18;;;;;;;35.10;10.70;;;6.40;25.70;;;;;;5009428;28;20553;-57
2022/04/20 02:11:46;;;;;;;34.30;10.23;;;6.30;25.90;;;;;;5008686;28;20479;-56
2022/04/20 02:14:12;;;;;;;34.47;10.70;;;6.30;26.10;;;;;;5010602;28;20471;-56
2022/04/20 02:16:39;;;;;;;33.40;11.10;;;6.20;26.30;;;;;;5010678;28;20508;-56
2022/04/20 02:19:06;;;;;;;33.10;10.30;;;6.20;26.50;;;;;;5009006;28;20471;-58
2022/04/20 02:21:33;;;;;;;31.87;12.20;;;6.20;26.60;;;;;;5010724;28;21069;-59
2022/04/20 02:23:59;;;;;;;32.17;10.50;;;6.10;26.50;;;;;;5013021;28;20463;-58
2022/04/20 02:26:26;;;;;;;32.87;10.70;;;6.10;26.70;;;;;;5013168;28;20464;-61
2022/04/20 02:28:54;;;;;;;34.17;12.60;;;6.00;26.70;;;;;;5010621;28;20483;-58
2022/04/20 02:31:21;;;;;;;36.30;12.43;;;6.00;26.80;;;;;;5009132;28;21056;-59
2022/04/20 02:33:47;;;;;;;33.27;11.10;;;5.90;27.40;;;;;;5008843;28;20476;-59
2022/04/20 02:36:14;;;;;;;33.27;12.57;;;5.90;27.60;;;;;;5013383;28;20467;-60
2022/04/20 02:38:41;;;;;;;33.07;11.30;;;5.90;27.80;;;;;;5006560;28;20480;-57
2022/04/20 02:41:09;;;;;;;31.00;10.53;;;5.90;28.00;;;;;;5014214;28;20463;-57
2022/04/20 02:43:36;;;;;;;32.10;11.80;;;5.80;28.00;;;;;;5007965;28;21019;-58
2022/04/20 02:46:04;;;;;;;33.93;12.53;;;5.80;28.30;;;;;;5009377;28;20962;-58
2022/04/20 02:48:31;;;;;;;32.50;11.73;;;5.80;28.30;;;;;;5005914;28;20557;-58
2022/04/20 02:50:58;;;;;;;32.10;11.50;;;5.80;28.50;;;;;;5017203;28;20462;-57
2022/04/20 02:53:25;;;;;;;31.10;12.07;;;5.80;28.50;;;;;;5009521;28;20468;-58
2022/04/20 02:55:52;;;;;;;35.10;11.77;;;5.70;28.50;;;;;;5010794;28;20455;-58
2022/04/20 02:58:18;;;;;;;34.83;12.77;;;5.70;28.40;;;;;;5004455;28;20499;-56
2022/04/20 03:00:45;;;;;;;32.53;13.80;;;5.70;28.70;;;;;;5016079;28;20505;-57
2022/04/20 03:03:13;;;;;;;34.67;14.40;;;5.60;29.20;;;;;;5006329;28;20467;-58
2022/04/20 03:05:40;;;;;;;35.57;14.27;;;5.60;28.80;;;;;;5010608;28;20467;-57
2022/04/20 03:08:07;;;;;;;33.13;12.93;;;5.60;29.00;;;;;;5009301;28;20479;-58
2022/04/20 03:10:34;;;;;;;36.03;14.20;;;5.60;28.90;;;;;;5010216;28;21227;-58
2022/04/20 03:13:01;;;;;;;34.93;13.83;;;5.50;28.80;;;;;;5009644;28;20464;-56
2022/04/20 03:15:27;;;;;;;33.80;13.63;;;5.50;28.90;;;;;;5009384;28;20464;-57
2022/04/20 03:17:54;;;;;;;35.10;12.77;;;5.50;28.80;;;;;;5009665;28;20506;-58
2022/04/20 03:20:22;;;;;;;33.87;13.00;;;5.50;28.90;;;;;;5007498;28;20476;-58
2022/04/20 03:22:49;;;;;;;34.40;13.43;;;5.50;29.00;;;;;;5009989;28;20490;-57
2022/04/20 03:25:16;;;;;;;35.17;13.73;;;5.50;29.00;;;;;;5009257;28;20958;-59
2022/04/20 03:27:43;;;;;;;34.20;13.03;;;5.40;28.80;;;;;;5009603;28;20575;-58
2022/04/20 03:30:11;;;;;;;36.63;13.27;;;5.40;29.00;;;;;;5007785;28;21009;-58
2022/04/20 03:32:38;;;;;;;36.00;14.47;;;5.40;29.00;;;;;;5008514;28;21107;-57
2022/04/20 03:35:05;;;;;;;35.60;14.33;;;5.40;29.10;;;;;;5006579;28;20992;-58
2022/04/20 03:37:34;;;;;;;37.30;14.33;;;5.40;29.10;;;;;;5016246;28;20511;-59
2022/04/20 03:40:00;;;;;;;36.30;15.10;;;5.30;29.30;;;;;;5012604;28;20464;-58
2022/04/20 03:42:27;;;;;;;35.87;14.87;;;5.30;29.20;;;;;;5010214;28;21534;-60
2022/04/20 03:44:54;;;;;;;36.77;14.73;;;5.30;29.50;;;;;;5002220;28;20465;-58
2022/04/20 03:47:21;;;;;;;36.20;14.90;;;5.20;29.40;;;;;;5002559;28;20863;-58
2022/04/20 03:49:47;;;;;;;37.27;15.43;;;5.20;29.80;;;;;;5008720;28;20459;-59
2022/04/20 03:52:14;;;;;;;34.40;14.70;;;5.10;29.90;;;;;;5017748;28;20464;-60
2022/04/20 03:54:42;;;;;;;34.77;14.00;;;5.10;30.20;;;;;;5013847;28;20464;-58
2022/04/20 03:57:10;;;;;;;35.10;14.97;;;5.10;30.50;;;;;;5004828;28;20499;-59
2022/04/20 03:59:38;;;;;;;35.33;14.70;;;5.00;30.30;;;;;;5021204;28;20465;-60
2022/04/20 04:02:06;;;;;;;39.10;15.40;;;5.00;30.30;;;;;;5003237;28;20484;-56
2022/04/20 04:04:33;;;;;;;37.10;15.63;;;5.00;30.60;;;;;;5010453;28;20468;-57
2022/04/20 04:07:00;;;;;;;36.10;15.83;;;4.90;30.60;;;;;;5007219;28;20491;-57
2022/04/20 04:09:27;;;;;;;36.87;15.77;;;4.90;30.70;;;;;;5016800;28;20467;-59
2022/04/20 04:11:55;;;;;;;36.33;15.90;;;4.90;31.00;;;;;;5014290;28;20471;-57
2022/04/20 04:14:22;;;;;;;36.90;14.93;;;4.80;30.90;;;;;;5007575;28;20467;-59
2022/04/20 04:16:49;;;;;;;41.97;16.50;;;4.80;30.90;;;;;;5005770;28;21015;-59
2022/04/20 04:19:16;;;;;;;37.80;17.53;;;4.80;31.10;;;;;;5008068;28;20503;-58
2022/04/20 04:21:42;;;;;;;36.90;15.70;;;4.80;30.90;;;;;;5006253;28;20463;-57
2022/04/20 04:24:34;;;;;;;36.70;14.73;;;4.80;31.10;;;;;;5009514;28;20460;-57
2022/04/20 04:26:58;;;;;;;35.83;16.10;;;4.80;31.20;;;;;;5007217;28;21030;-58
2022/04/20 04:29:25;;;;;;;37.67;15.67;;;4.80;31.30;;;;;;5007847;28;20468;-58
2022/04/20 04:31:52;;;;;;;37.70;14.37;;;4.80;31.30;;;;;;5003828;28;20786;-57
2022/04/20 04:34:19;;;;;;;38.20;15.27;;;4.80;31.30;;;;;;5006473;28;20460;-57
2022/04/20 04:36:46;;;;;;;36.60;14.53;;;4.80;31.30;;;;;;5010365;28;20459;-60
2022/04/20 04:39:14;;;;;;;36.63;14.17;;;4.80;31.20;;;;;;5005156;28;20495;-58
2022/04/20 04:41:42;;;;;;;37.40;14.40;;;4.80;31.30;;;;;;5004098;28;20557;-60
2022/04/20 04:44:10;;;;;;;37.27;15.67;;;4.80;31.80;;;;;;5005497;28;20471;-58
2022/04/20 04:49:21;;;;;;;41.80;13.97;;;4.90;31.40;;;;;;5003635;28;20976;-59
2022/04/20 04:51:48;;;;;;;38.47;14.63;;;5.00;31.00;;;;;;5016009;28;20521;-57
2022/04/20 04:54:15;;;;;;;42.43;15.67;;;5.20;30.70;;;;;;5014267;28;20470;-59
2022/04/20 04:56:42;;;;;;;42.67;15.20;;;5.30;30.40;;;;;;5004408;28;20879;-56
2022/04/20 04:59:10;;;;;;;42.97;14.80;;;5.40;30.10;;;;;;5009957;28;21054;-59
2022/04/20 05:01:37;;;;;;;42.03;13.43;;;5.40;30.20;;;;;;5007720;28;21032;-57
2022/04/20 05:04:05;;;;;;;41.47;13.43;;;5.50;30.30;;;;;;5008623;28;20471;-59
2022/04/20 05:06:31;;;;;;;40.40;13.33;;;5.70;30.50;;;;;;4999563;28;20513;-59
2022/04/20 05:08:58;;;;;;;41.67;12.00;;;6.10;30.40;;;;;;5003356;28;20469;-59
2022/04/20 05:11:25;;;;;;;39.53;11.30;;;6.50;29.80;;;;;;5003354;28;20468;-58
2022/04/20 05:13:52;;;;;;;39.40;11.20;;;6.90;29.80;;;;;;5002768;28;20472;-58
2022/04/20 05:16:20;;;;;;;39.57;10.30;;;7.20;29.30;;;;;;5005002;28;20459;-59
2022/04/20 05:18:47;;;;;;;38.90;11.73;;;7.50;28.80;;;;;;5000548;28;20503;-58
2022/04/20 05:21:13;;;;;;;39.63;10.73;;;7.80;27.50;;;;;;5004746;28;20471;-60
2022/04/20 05:23:40;;;;;;;40.47;10.97;;;8.10;26.10;;;;;;4996704;28;20464;-58
2022/04/20 05:26:07;;;;;;;39.83;10.70;;;8.60;24.10;;;;;;5004344;28;20459;-58
2022/04/20 05:28:34;;;;;;;37.33;9.57;;;9.00;22.60;;;;;;5007647;28;20483;-58
2022/04/20 05:31:01;;;;;;;36.53;9.63;;;9.40;22.00;;;;;;4999443;28;20483;-56
2022/04/20 05:33:35;;;;;;;38.67;10.87;;;9.80;20.00;;;;;;5005385;28;20544;-57
2022/04/20 05:36:02;;;;;;;36.50;9.60;;;10.40;19.10;;;;;;5011041;28;20546;-59
2022/04/20 05:43:57;;;;;;;35.40;9.30;;;14.00;12.90;;;;;;5006955;28;20493;-61
2022/04/20 05:46:23;;;;;;;37.10;8.30;;;15.40;10.30;;;;;;5010412;28;20997;-62
2022/04/20 05:48:51;;;;;;;33.23;8.43;;;16.70;8.60;;;;;;5005185;28;21035;-61
2022/04/20 05:51:18;;;;;;;34.50;9.33;;;18.00;6.10;;;;;;5004277;28;20456;-61
2022/04/20 05:53:45;;;;;;;33.00;7.60;;;19.10;3.90;;;;;;5011556;28;20466;-60
2022/04/20 05:56:11;;;;;;;31.33;7.20;;;20.20;2.30;;;;;;5007601;28;20478;-60
2022/04/20 05:58:38;;;;;;;31.50;8.07;;;21.30;1.00;;;;;;5015836;28;20509;-61
2022/04/20 06:01:05;;;;;;;30.67;7.17;;;22.40;1.00;;;;;;5009709;28;20480;-63
2022/04/20 06:03:32;;;;;;;32.70;6.97;;;23.30;1.00;;;;;;5006774;28;20466;-65
2022/04/20 06:06:01;;;;;;;29.77;7.13;;;24.00;1.00;;;;;;5009644;28;20475;-66
2022/04/20 06:08:28;;;;;;;30.93;6.80;;;24.50;1.00;;;;;;5010753;28;20479;-61
2022/04/20 06:10:57;;;;;;;29.60;8.07;;;25.10;1.00;;;;;;5011038;28;20501;-64
2022/04/20 06:13:24;;;;;;;30.07;8.00;;;25.10;1.00;;;;;;5009325;28;20468;-62
2022/04/20 06:15:51;;;;;;;29.53;6.87;;;25.70;1.00;;;;;;5009326;28;20468;-61
2022/04/20 06:18:18;;;;;;;30.10;7.97;;;26.20;1.00;;;;;;5008816;28;20522;-61
2022/04/20 06:20:44;;;;;;;28.30;6.53;;;26.90;1.00;;;;;;5008123;28;20472;-59
2022/04/20 06:23:13;;;;;;;28.27;6.97;;;27.10;1.00;;;;;;5006706;28;20472;-59
2022/04/20 06:25:39;;;;;;;29.07;6.70;;;27.30;1.00;;;;;;5003646;28;20463;-58
2022/04/20 06:28:06;;;;;;;29.03;7.23;;;27.60;1.00;;;;;;5009232;28;20480;-58
2022/04/20 06:30:33;;;;;;;28.77;7.37;;;27.70;1.00;;;;;;5006118;28;20826;-59
2022/04/20 06:33:00;;;;;;;28.10;6.83;;;28.20;1.00;;;;;;5006942;28;20836;-62
2022/04/20 06:35:27;;;;;;;29.20;7.13;;;28.80;1.00;;;;;;5008713;28;20475;-61
2022/04/20 06:37:53;;;;;;;29.50;7.00;;;29.20;1.00;;;;;;5008527;28;20485;-61
2022/04/20 06:40:22;;;;;;;27.70;7.03;;;29.80;1.00;;;;;;5010229;28;20467;-61
2022/04/20 06:42:48;;;;;;;28.87;7.80;;;30.20;1.00;;;;;;5006133;28;20474;-61
2022/04/20 06:45:15;;;;;;;28.77;7.30;;;30.80;1.00;;;;;;5006530;28;20481;-61
2022/04/20 06:47:42;;;;;;;28.67;7.90;;;30.90;1.00;;;;;;5007977;28;21043;-61
2022/04/20 06:50:09;;;;;;;27.60;6.90;;;30.60;1.00;;;;;;5011095;28;20468;-63
2022/04/20 07:00:51;;;;;;;27.10;7.03;;;31.60;1.00;;;;;;5006978;28;20950;-60
2022/04/20 07:03:17;;;;;;;27.60;7.47;;;32.20;1.00;;;;;;5006701;28;20474;-60
2022/04/20 07:05:44;;;;;;;27.90;7.17;;;32.60;1.00;;;;;;5014900;28;20885;-61
2022/04/20 07:08:11;;;;;;;26.93;6.83;;;33.10;1.00;;;;;;5008802;28;20468;-61
2022/04/20 07:10:39;;;;;;;28.10;6.70;;;33.70;1.00;;;;;;5013476;28;20968;-59
2022/04/20 07:13:06;;;;;;;26.40;6.27;;;33.60;1.00;;;;;;5006405;28;20462;-61
2022/04/20 07:15:32;;;;;;;27.33;7.20;;;34.10;1.00;;;;;;5005500;28;20666;-63
2022/04/20 07:17:59;;;;;;;28.60;6.43;;;34.80;1.00;;;;;;5000140;28;20491;-61
2022/04/20 07:20:26;;;;;;;26.00;6.57;;;34.70;1.00;;;;;;5006354;28;20462;-60
2022/04/20 07:22:54;;;;;;;26.67;6.03;;;34.20;1.00;;;;;;5005717;28;20540;-62
2022/04/20 07:25:21;;;;;;;26.90;7.33;;;33.50;1.00;;;;;;5007907;28;20551;-60
2022/04/20 07:27:49;;;;;;;27.77;7.17;;;33.00;1.00;;;;;;5007179;28;20562;-60
2022/04/20 07:30:16;;;;;;;27.50;6.97;;;32.70;1.00;;;;;;5011938;28;20471;-59
2022/04/20 07:32:43;;;;;;;27.50;6.20;;;32.80;1.00;;;;;;5007031;28;20467;-62
2022/04/20 07:35:10;;;;;;;26.73;6.80;;;32.70;1.00;;;;;;5009275;28;20493;-60
2022/04/20 07:37:38;;;;;;;26.57;5.87;;;33.00;1.00;;;;;;5011662;28;20483;-59
2022/04/20 07:40:06;;;;;;;27.03;6.60;;;34.10;1.00;;;;;;5003815;28;20491;-60
2022/04/20 07:42:33;;;;;;;26.10;6.57;;;34.80;1.00;;;;;;5008282;28;20476;-59
2022/04/20 07:45:01;;;;;;;26.00;6.40;;;35.60;1.00;;;;;;5007229;28;20463;-60
2022/04/20 07:47:28;;;;;;;25.17;5.90;;;35.90;1.00;;;;;;5010787;28;20492;-59
2022/04/20 07:52:40;;;;;;;24.90;5.57;;;36.90;1.00;;;;;;5006269;28;20558;-61
2022/04/20 07:55:11;;;;;;;28.60;6.50;;;37.50;1.00;;;;;;5006627;28;20475;-62
2022/04/20 07:57:38;;;;;;;25.87;6.00;;;37.00;1.00;;;;;;5006114;28;20562;-61
2022/04/20 08:00:08;;;;;;;26.27;6.40;;;36.40;1.00;;;;;;5004975;28;20483;-61
2022/04/20 08:02:35;;;;;;;25.70;6.53;;;36.10;1.00;;;;;;5006282;28;20466;-61
2022/04/20 08:05:01;;;;;;;26.20;6.50;;;36.10;1.00;;;;;;4977714;28;20512;-59
2022/04/20 08:07:29;;;;;;;26.00;6.90;;;35.80;1.00;;;;;;5005015;28;20863;-59
2022/04/20 08:09:55;;;;;;;28.73;7.93;;;35.30;1.00;;;;;;5005825;28;20456;-59
2022/04/20 08:12:24;;;;;;;26.47;6.37;;;35.10;1.00;;;;;;5004737;28;20460;-59
2022/04/20 08:14:51;;;;;;;25.60;6.00;;;35.00;1.00;;;;;;5004965;28;21104;-58
2022/04/20 08:17:19;;;;;;;26.43;6.77;;;35.60;1.00;;;;;;5005211;28;20491;-59
2022/04/20 08:19:46;;;;;;;25.97;5.60;;;35.40;1.00;;;;;;5005378;28;20564;-59
2022/04/20 08:22:14;;;;;;;25.90;5.93;;;35.90;1.00;;;;;;5007358;28;21004;-58
2022/04/20 08:24:43;;;;;;;27.10;5.67;;;36.80;1.00;;;;;;5008930;28;20483;-58
2022/04/20 08:27:10;;;;;;;25.23;6.90;;;38.00;1.00;;;;;;5002079;28;20542;-60
2022/04/20 08:29:36;;;;;;;25.60;6.53;;;39.10;1.00;;;;;;5006688;28;20456;-59
2022/04/20 08:32:03;;;;;;;25.37;5.50;;;40.00;1.00;;;;;;5001014;28;20494;-59
2022/04/20 08:34:32;;;;;;;25.03;6.00;;;41.10;1.00;;;;;;5004722;28;20475;-59
2022/04/20 08:36:58;;;;;;;24.00;5.57;;;42.00;1.00;;;;;;5007496;28;20471;-59
2022/04/20 08:39:25;;;;;;;24.10;6.00;;;42.60;1.00;;;;;;5002933;28;21027;-59
2022/04/20 08:41:52;;;;;;;24.17;5.53;;;42.50;1.00;;;;;;5005050;28;20468;-60
2022/04/20 08:44:24;;;;;;;24.43;5.97;;;42.70;1.00;;;;;;5001239;28;20464;-60
2022/04/20 08:46:53;;;;;;;23.70;5.53;;;42.30;1.00;;;;;;5002762;28;20487;-59
2022/04/20 08:49:20;;;;;;;24.07;5.57;;;42.70;1.00;;;;;;5006014;28;20460;-60
2022/04/20 08:54:35;;;;;;;23.90;4.70;;;43.50;1.00;;;;;;5008079;28;20755;-60
2022/04/20 08:57:19;;;;;;;23.87;4.93;;;43.90;1.00;;;;;;5007927;28;20495;-60
2022/04/20 08:59:48;;;;;;;23.30;4.93;;;44.20;1.00;;;;;;5003644;28;20487;-60
2022/04/20 09:02:15;;;;;;;22.97;4.27;;;44.70;1.00;;;;;;5007834;28;20571;-60
2022/04/20 09:04:43;;;;;;;23.13;4.67;;;44.00;1.00;;;;;;5006629;28;20499;-61
2022/04/20 09:07:12;;;;;;;23.50;4.70;;;42.60;1.00;;;;;;5012738;28;20484;-63
2022/04/20 09:09:39;;;;;;;23.50;4.67;;;42.20;1.00;;;;;;5003465;28;20482;-60
2022/04/20 09:12:10;;;;;;;25.10;5.10;;;41.90;1.00;;;;;;5004884;28;20467;-59
2022/04/20 09:14:39;;;;;;;23.40;4.83;;;42.40;1.00;;;;;;5004337;28;20468;-59
2022/04/20 09:17:06;;;;;;;23.87;4.70;;;43.00;1.00;;;;;;5003442;28;21208;-61
2022/04/20 09:19:32;;;;;;;23.80;4.93;;;43.70;1.00;;;;;;5008100;28;20486;-60
2022/04/20 09:21:59;;;;;;;23.00;4.63;;;44.00;1.00;;;;;;5005217;28;20471;-60
2022/04/20 09:24:27;;;;;;;24.17;4.60;;;44.20;1.00;;;;;;5009931;28;20467;-59
2022/04/20 09:26:56;;;;;;;23.00;4.27;;;44.40;1.00;;;;;;5006595;28;20483;-58
2022/04/20 09:29:23;;;;;;;23.63;5.43;;;43.30;1.00;;;;;;5005842;28;20498;-60
2022/04/20 09:31:51;;;;;;;24.20;5.00;;;42.50;1.00;;;;;;5015756;28;20486;-60
2022/04/20 09:34:53;;;;;;;26.30;5.40;;;41.70;1.00;;;;;;5004939;28;20456;-59
2022/04/20 09:37:21;;;;;;;23.73;5.40;;;42.00;1.00;;;;;;4998560;28;20479;-60
2022/04/20 09:39:50;;;;;;;23.17;4.50;;;42.50;1.00;;;;;;5004641;28;20610;-60
2022/04/20 09:42:18;;;;;;;23.73;4.40;;;43.10;1.00;;;;;;5009634;28;20456;-60
2022/04/20 09:44:57;;;;;;;24.87;4.83;;;43.50;1.00;;;;;;5002533;28;20478;-62
2022/04/20 09:50:10;;;;;;;23.60;5.47;;;43.80;1.00;;;;;;5000525;28;20439;-60
2022/04/20 09:52:38;;;;;;;23.20;4.40;;;44.40;1.00;;;;;;5003158;28;20578;-58
2022/04/20 09:55:08;;;;;;;23.90;5.00;;;44.30;1.00;;;;;;5006457;28;20471;-63
2022/04/20 09:57:37;;;;;;;24.40;4.97;;;43.80;1.00;;;;;;5004981;28;20499;-61
2022/04/20 10:00:07;;;;;;;24.10;4.80;;;43.60;1.00;;;;;;5004962;28;20579;-59
2022/04/20 10:02:38;;;;;;;23.17;4.77;;;43.00;1.00;;;;;;5007811;28;20480;-62
2022/04/20 10:05:05;;;;;;;23.50;4.60;;;43.00;1.00;;;;;;5004118;28;20476;-61
2022/04/20 10:07:32;;;;;;;24.07;5.17;;;42.70;1.00;;;;;;5005500;28;20476;-60
2022/04/20 10:09:59;;;;;;;24.57;5.20;;;42.00;1.00;;;;;;5006023;28;20988;-62
2022/04/20 10:12:30;;;;;;;24.43;5.10;;;41.90;1.00;;;;;;5008364;28;20456;-61
2022/04/20 10:17:49;;;;;;;24.67;4.53;;;41.30;1.00;;;;;;5006943;28;20567;-61
2022/04/20 10:20:16;;;;;;;25.07;4.57;;;41.40;1.00;;;;;;5011708;28;20578;-62
2022/04/20 10:22:44;;;;;;;24.30;4.07;;;41.10;1.00;;;;;;5013355;28;20464;-61
2022/04/20 10:25:13;;;;;;;24.70;5.90;;;41.30;1.00;;;;;;5008274;28;20463;-61
2022/04/20 10:27:55;;;;;;;24.37;4.67;;;41.10;1.00;;;;;;5009647;28;20487;-62
2022/04/20 10:30:26;;;;;;;24.43;4.63;;;40.80;1.00;;;;;;5005247;28;20462;-61
2022/04/20 10:32:59;;;;;;;26.93;4.70;;;40.80;1.00;;;;;;5011737;28;20472;-61
2022/04/20 10:35:26;;;;;;;24.63;4.53;;;40.90;1.00;;;;;;5013742;28;20526;-63
2022/04/20 10:38:10;;;;;;;24.80;4.50;;;40.70;1.00;;;;;;5015986;28;20474;-61
2022/04/20 10:40:56;;;;;;;25.87;4.97;;;39.90;1.00;;;;;;5004984;28;20479;-63
2022/04/20 10:43:25;;;;;;;24.90;5.43;;;37.90;1.00;;;;;;5007026;28;20564;-62
2022/04/20 10:46:14;;;;;;;27.13;6.03;;;36.00;1.00;;;;;;5009572;28;20479;-62
2022/04/20 10:49:02;;;;;;;26.77;5.30;;;33.70;1.00;;;;;;5011400;28;20567;-61
2022/04/20 10:51:41;;;;;;;26.30;4.90;;;31.30;1.00;;;;;;4998237;28;20543;-61
2022/04/20 10:54:26;;;;;;;28.00;5.87;;;29.30;1.00;;;;;;5006399;28;20547;-62
2022/04/20 10:57:11;;;;;;;27.23;5.13;;;27.70;1.00;;;;;;5004680;28;20488;-62
2022/04/20 10:59:40;;;;;;;28.27;5.50;;;26.40;1.00;;;;;;5006480;28;20479;-61
2022/04/20 11:02:12;;;;;;;32.10;5.27;;;25.50;1.00;;;;;;5006970;28;20485;-62
2022/04/20 11:04:41;;;;;;;29.30;4.97;;;24.60;1.00;;;;;;5006875;28;20467;-62
2022/04/20 11:07:26;;;;;;;30.13;6.00;;;23.80;1.00;;;;;;5005601;28;20949;-62
2022/04/20 11:10:08;;;;;;;32.30;5.23;;;22.70;1.00;;;;;;5013362;28;20458;-61
2022/04/20 11:18:42;;;;;;;30.80;5.90;;;20.60;1.00;;;;;;5003208;28;22118;-61
2022/04/20 11:21:17;;;;;;;29.87;5.77;;;20.10;1.00;;;;;;5007198;28;20538;-61
2022/04/20 11:24:06;;;;;;;30.93;6.07;;;19.70;1.00;;;;;;5005785;28;20585;-61
2022/04/20 11:26:35;;;;;;;31.50;7.27;;;19.30;1.00;;;;;;5010967;28;20451;-63
2022/04/20 11:29:08;;;;;;;31.07;6.83;;;19.00;1.00;;;;;;5004898;28;20475;-62
2022/04/20 11:31:37;;;;;;;31.70;5.97;;;18.60;1.00;;;;;;5012376;28;20488;-61
2022/04/20 11:34:05;;;;;;;31.63;5.83;;;18.40;1.00;;;;;;5012173;28;20836;-62
2022/04/20 11:36:32;;;;;;;31.30;6.90;;;18.20;1.00;;;;;;5011456;28;20954;-60
2022/04/20 11:39:00;;;;;;;32.10;6.17;;;17.90;1.00;;;;;;5003938;28;20850;-61
2022/04/20 11:41:27;;;;;;;31.77;6.27;;;17.60;1.00;;;;;;5005713;28;21190;-62
2022/04/20 11:43:54;;;;;;;31.07;6.80;;;17.30;1.00;;;;;;5003918;28;20464;-61
2022/04/20 11:46:21;;;;;;;31.77;6.43;;;17.10;1.00;;;;;;5004866;28;21072;-61
2022/04/20 11:48:54;;;;;;;30.93;5.93;;;17.10;1.00;;;;;;5005315;28;20499;-60
2022/04/20 11:51:25;;;;;;;32.83;6.10;;;17.00;1.00;;;;;;5000985;28;20466;-63
2022/04/20 11:53:53;;;;;;;33.07;6.67;;;17.00;1.20;;;;;;5004873;28;20543;-61
2022/04/20 11:56:34;;;;;;;32.07;6.77;;;16.90;1.20;;;;;;5008067;28;108790;-61
2022/04/20 11:59:01;;;;;;;32.20;6.60;;;16.80;1.00;;;;;;5013988;28;20459;-63
2022/04/20 12:01:30;;;;;;;32.10;6.83;;;16.70;1.60;;;;;;5000919;28;20479;-63
2022/04/20 12:04:00;;;;;;;34.37;7.83;;;16.60;1.10;;;;;;5012812;28;21068;-63
2022/04/20 12:06:28;;;;;;;31.33;6.40;;;16.60;1.50;;;;;;5003427;28;20934;-61
2022/04/20 12:08:55;;;;;;;32.17;6.43;;;16.50;1.90;;;;;;5003805;28;20495;-64
2022/04/20 12:11:23;;;;;;;31.63;6.60;;;16.50;2.00;;;;;;5008267;28;20965;-64
2022/04/20 12:13:56;;;;;;;31.43;6.97;;;16.40;1.50;;;;;;5002595;28;20467;-64
2022/04/20 12:16:26;;;;;;;31.37;6.27;;;16.40;2.50;;;;;;5003772;28;20572;-64
2022/04/20 12:18:53;;;;;;;31.67;7.67;;;16.30;2.30;;;;;;5000789;28;20491;-64
2022/04/20 12:21:40;;;;;;;34.20;7.70;;;16.20;1.70;;;;;;5006510;28;20590;-63
2022/04/20 12:24:09;;;;;;;31.15;7.00;;;16.00;1.00;;;;;;4995870;28;20553;-63
2022/04/20 12:26:41;;;;;;;32.40;7.07;;;15.80;1.70;;;;;;4996571;28;20258;-64
2022/04/20 12:29:09;;;;;;;33.77;7.73;;;15.60;1.60;;;;;;4998262;28;20468;-64
2022/04/20 12:31:41;;;;;;;32.50;6.80;;;15.50;3.20;;;;;;4999937;28;21032;-63
2022/04/20 12:34:09;;;;;;;32.70;7.80;;;15.50;3.60;;;;;;5004593;28;20455;-63
2022/04/20 12:36:53;;;;;;;36.90;7.40;;;15.50;3.00;;;;;;5001052;28;20860;-63
2022/04/20 12:39:25;;;;;;;32.03;6.17;;;15.40;3.80;;;;;;5002213;28;20463;-63
2022/04/20 12:41:54;;;;;;;32.40;6.70;;;15.40;4.10;;;;;;4998496;28;20993;-63
2022/04/20 12:44:52;;;;;;;33.30;7.40;;;15.40;4.10;;;;;;5004097;28;20464;-62
2022/04/20 12:47:39;;;;;;;34.47;6.40;;;15.40;4.70;;;;;;5004696;28;20480;-63
2022/04/20 12:50:20;;;;;;;34.73;6.73;;;15.40;3.80;;;;;;5006939;28;20466;-64
2022/04/20 12:52:56;;;;;;;32.57;6.90;;;15.40;3.40;;;;;;5002070;28;20470;-63
2022/04/20 12:55:24;;;;;;;34.97;7.70;;;15.40;3.00;;;;;;5005903;28;20485;-62
2022/04/20 13:03:34;;;;;;;33.30;6.77;;;15.40;4.00;;;;;;5004349;28;20451;-62
2022/04/20 13:06:00;;;;;;;32.37;6.93;;;15.50;3.90;;;;;;5007818;28;21163;-62
2022/04/20 13:08:28;;;;;;;32.03;6.30;;;15.50;3.70;;;;;;5011604;28;20487;-62
2022/04/20 13:10:55;;;;;;;32.50;7.13;;;15.50;4.80;;;;;;5010111;28;20464;-62
2022/04/20 13:13:26;;;;;;;31.70;6.37;;;15.50;3.50;;;;;;5008233;28;20479;-63
2022/04/20 13:15:54;;;;;;;33.10;6.03;;;15.50;3.80;;;;;;5011178;28;20460;-63
2022/04/20 13:18:21;;;;;;;32.30;7.07;;;15.50;3.10;;;;;;5005646;28;20503;-62
2022/04/20 13:20:49;;;;;;;33.23;6.90;;;15.30;2.20;;;;;;5011004;28;20475;-65
2022/04/20 13:23:16;;;;;;;35.37;6.73;;;15.30;2.80;;;;;;5006234;28;20555;-65
2022/04/20 13:28:29;;;;;;;33.07;7.10;;;15.20;2.80;;;;;;5004714;28;20483;-63
2022/04/20 13:30:56;;;;;;;33.70;8.80;;;15.30;5.50;;;;;;4999392;28;21262;-64
2022/04/20 13:33:23;;;;;;;33.17;7.60;;;15.30;5.10;;;;;;5007317;28;20506;-66
2022/04/20 13:35:53;;;;;;;35.07;7.30;;;15.40;5.90;;;;;;5003688;28;20467;-64